Antelope Valley, Nevada Weather observations

Data are for 10 minute period ending at time listed.
 Day   Time   Solar   Ave.   Ave.  Ave.  Vector  Max.   Baro.   Total    
  of    of     Rad.   Air    Rel.  Wind   Wind   Wind  Press.  Precip.   
Year   Day            Temp.  Hum.  Speed  Dir.   Gust                    
2016   (PST)  Kw/m2    F      %     mph   deg.    mph    mb.     in.     
-------------------------------------------------------------------------
 149   10:30   0.85   65.0    30    5.7    18    10.6   850.8    0.00 
 149   10:40   0.91   66.0    28    6.0    37    10.6   850.7    0.00 
 149   10:50   0.93   66.6    28    7.7    52    12.5   850.6    0.00 
 149   11:00   0.93   67.2    28    5.4    56     9.9   850.5    0.00 
 149   11:10   0.93   67.8    25    5.6    61     9.6   850.4    0.00 
 149   11:20   0.96   68.3    27    4.7    13     8.8   850.2    0.00 
 149   11:30   0.95   68.6    27    6.1    21    11.1   850.1    0.00 
 149   11:40   0.94   68.3    25    4.3    31    10.2   850.0    0.00 
 149   11:50   0.95   68.9    26    5.6   351    10.7   850.0    0.00 
 149   12:00   0.97   69.5    26    5.3    10     9.3   849.9    0.00 
 149   12:10   0.95   70.1    23    4.8    63    11.0   849.7    0.00 
 149   12:20   0.94   70.4    23    4.1    43     8.5   849.6    0.00 
 149   12:30   0.94   70.3    23    2.4   248     5.9   849.6    0.00 
 149   12:40   0.93   70.8    23    3.2    36     6.4   849.5    0.00 
 149   12:50   0.92   71.3    23    2.9    18     6.4   849.4    0.00 
 149   13:00   0.92   71.6    25    4.4    17     8.8   849.3    0.00 
 149   13:10   0.90   71.3    23    3.8    12     7.2   849.3    0.00 
 149   13:20   0.89   71.0    28    3.1   222     8.9   849.2    0.00 
 149   13:30   0.89   71.9    26    2.5   218     7.1   849.0    0.00 
 149   13:40   0.76   71.8    24    3.4   312     7.5   849.1    0.00 
 149   13:50   0.94   72.6    23    4.8     8    12.9   849.1    0.00 
 149   14:00   0.84   72.6    25    6.8   357    13.2   849.0    0.00 
 149   14:10   0.86   72.9    25    5.5    10     9.4   849.0    0.00 
 149   14:20   0.86   73.3    24    5.4   339    11.9   849.0    0.00 
 149   14:30   0.49   71.7    23    5.0   306    11.0   848.9    0.00 
 149   14:40   0.58   71.7    25    3.3   296     9.0   848.8    0.00 
 149   14:50   0.53   72.9    26    4.1     4     9.9   848.7    0.00 
 149   15:00   0.50   72.2    22    2.5    49     6.6   848.7    0.00 
 149   15:10   0.49   72.5    23    4.5    54    11.2   848.6    0.00 
 149   15:20   0.33   72.4    21    3.9    68     7.7   848.6    0.00 
 149   15:30   0.36   72.3    23    1.8     4     6.0   848.6    0.00 
 149   15:40   0.35   72.2    26    2.5   198     5.6   848.6    0.00 
 149   15:50   0.32   68.6    42    6.0   238     9.9   848.6    0.00 
 149   16:00   0.31   67.9    36    7.3   144    14.0   848.5    0.00 
 149   16:10   0.29   68.5    32    4.6   136    10.7   848.6    0.00 
 149   16:20   0.41   68.8    40    4.6   211     7.6   848.5    0.00 
 149   16:30   0.37   70.6    35    3.5   201     7.5   848.5    0.00 
 149   16:40   0.40   70.5    36    2.4   237     4.2   848.5    0.00 
 149   16:50   0.48   72.3    29    2.8   223     5.3   848.5    0.00 
 149   17:00   0.43   73.0    27    2.2   252     5.3   848.6    0.00 
 149   17:10   0.36   72.1    30    2.6   245     4.9   848.7    0.00 
 149   17:20   0.33   73.2    25    1.5   317     2.8   848.7    0.00 
 149   17:30   0.24   72.7    34    1.9   300     3.1   848.7    0.00 
 149   17:40   0.21   70.6    40    1.4   256     3.4   848.7    0.00 
 149   17:50   0.16   71.4    28    0.7    16     2.0   848.8    0.00 
 149   18:00   0.12   70.1    34    2.1   125     5.3   848.8    0.00 
 149   18:10   0.09   65.4    44    4.9   134     9.6   848.9    0.00 
 149   18:20   0.07   63.4    46    4.9   128     7.0   849.0    0.00 
 149   18:30   0.06   63.7    41    5.3    96     9.5   849.2    0.00 
 149   18:40   0.04   64.4    38    6.1    95     8.3   849.5    0.00 
 149   18:50   0.02   64.1    38    4.8    94     7.5   849.6    0.00 
 149   19:00   0.02   63.0    40    3.0    97     6.5   849.7    0.00 
 149   19:10   0.01   62.2    39    5.2    85     9.0   849.8    0.00 
 149   19:20   0.01   61.8    41    2.8    95     5.4   850.0    0.00 
 149   19:30   0.00   59.8    47    1.1   102     3.0   850.1    0.00 
 149   19:40   0.00   57.4    54    2.6   280     6.0   850.2    0.00 
 149   19:50   0.00   57.1    56    8.1   262    16.8   850.6    0.00 
 149   20:00   0.00   60.6    47   11.9   195    24.2   851.0    0.00 
 149   20:10   0.00   61.8    46    8.0   171    12.1   851.1    0.00 
 149   20:20   0.00   59.8    57    6.0   186    11.8   851.4    0.00 
 149   20:30   0.00   57.8    60    5.5   173     7.7   851.5    0.00 
 149   20:40   0.00   58.8    54    6.7   158    10.7   851.6    0.00 
 149   20:50   0.00   59.6    50    8.7   166    12.3   851.5    0.00 
 149   21:00   0.00   59.3    50    7.9   166    11.8   851.4    0.00 
 149   21:10   0.00   58.9    49    6.6   164     9.9   851.5    0.00 
 149   21:20   0.00   56.9    55    4.4   148     5.9   851.5    0.00 
 149   21:30   0.00   55.3    59    2.9   138     4.2   851.5    0.00 
 149   21:40   0.00   55.2    60    2.7   168     3.7   851.5    0.00 
 149   21:50   0.00   51.9    68    3.0   261     4.8   851.6    0.00 
 149   22:00   0.00   51.0    71    1.6   237     3.5   851.6    0.00 
 149   22:10   0.00   51.0    70    1.5   295     2.9   851.6    0.00 
 149   22:20   0.00   49.9    72    3.1   307     4.0   851.6    0.00 
 149   22:30   0.00   49.7    72    2.1   280     3.5   851.7    0.00 
 149   22:40   0.00   49.2    72    2.7   184     3.7   851.7    0.00 
 149   22:50   0.00   49.8    72    3.0   192     3.7   851.7    0.00 
 149   23:00   0.00   48.1    74    3.5   144     5.0   851.7    0.00 
 149   23:10   0.00   45.9    80    3.6   129     4.5   851.7    0.00 
 149   23:20   0.00   45.1    83    4.2   137     5.3   851.6    0.00 
 149   23:30   0.00   45.1    84    3.5   125     4.4   851.5    0.00 
 149   23:40   0.00   46.1    83    4.4   133     5.8   851.5    0.00 
 149   23:50   0.00   47.2    78    4.7   140     6.3   851.5    0.00 
 150    0:00   0.00   46.7    79    3.9   164     5.9   851.5    0.00 
 150    0:10   0.00   45.5    80    3.5   268     5.6   851.5    0.00 
 150    0:20   0.00   44.2    82    3.1   246     4.3   851.5    0.00 
 150    0:30   0.00   44.1    83    4.0   229     5.6   851.6    0.00 
 150    0:40   0.00   43.4    85    3.0   210     3.9   851.5    0.00 
 150    0:50   0.00   43.6    85    2.5   227     3.1   851.4    0.00 
 150    1:00   0.00   43.1    86    3.2   217     3.8   851.4    0.00 
 150    1:10   0.00   43.2    87    2.5   222     3.2   851.3    0.00 
 150    1:20   0.00   42.9    87    3.5   193     4.6   851.3    0.00 
 150    1:30   0.00   43.0    87    2.7   195     3.9   851.3    0.00 
 150    1:40   0.00   43.7    86    2.0   193     3.0   851.3    0.00 
 150    1:50   0.00   43.8    85    1.9   224     3.5   851.3    0.00 
 150    2:00   0.00   44.1    83    2.6   219     4.2   851.3    0.00 
 150    2:10   0.00   43.7    82    2.3   208     3.5   851.3    0.00 
 150    2:20   0.00   43.0    83    2.2   153     3.2   851.2    0.00 
 150    2:30   0.00   41.1    85    3.3   132     4.5   851.1    0.00 
 150    2:40   0.00   39.9    87    2.6   142     4.3   851.0    0.00 
 150    2:50   0.00   39.8    88    0.1   212     1.1   851.0    0.00 
 150    3:00   0.00   41.6    87    2.9   233     4.9   851.0    0.00 
 150    3:10   0.00   42.1    83    4.1   225     5.5   851.0    0.00 
 150    3:20   0.00   40.7    85    3.3   178     4.0   851.0    0.00 
 150    3:30   0.00   40.2    86    2.7   187     4.3   851.1    0.00 
 150    3:40   0.00   39.1    87    3.7   158     4.5   851.2    0.00 
 150    3:50   0.00   40.1    87    2.4   163     3.3   851.2    0.00 
 150    4:00   0.00   39.0    86    0.8   196     2.8   851.2    0.00 
 150    4:10   0.00   38.2    87    0.1   178     1.0   851.2    0.00 
 150    4:20   0.00   38.7    87    1.5   137     2.4   851.4    0.00 
 150    4:30   0.00   38.4    87    0.1   144     1.9   851.4    0.00 
 150    4:40   0.01   38.5    86    3.4   154     3.9   851.6    0.00 
 150    4:50   0.01   38.5    87    3.9   143     4.5   851.7    0.00 
 150    5:00   0.03   38.7    88    2.1   165     4.6   851.7    0.00 
 150    5:10   0.06   39.7    88    1.0   189     2.6   851.9    0.00 
 150    5:20   0.08   41.4    85    1.7   241     2.9   852.0    0.00 
 150    5:30   0.10   41.6    86    2.3   233     3.1   852.1    0.00 
 150    5:40   0.13   42.6    88    2.9   248     4.7   852.2    0.00 
 150    5:50   0.16   44.7    87    4.0   249     5.3   852.2    0.00 
 150    6:00   0.19   47.1    85    2.7   229     5.6   852.4    0.00 
 150    6:10   0.21   49.0    82    3.6   250     5.3   852.3    0.00 
 150    6:20   0.24   50.4    78    3.0   242     5.3   852.5    0.00 
 150    6:30   0.27   52.5    74    2.7   218     4.5   852.7    0.00 
 150    6:40   0.30   54.2    68    2.9   206     5.0   852.9    0.00 
 150    6:50   0.34   55.4    67    3.2   216     6.0   852.9    0.00 
 150    7:00   0.36   56.0    65    3.4   213     5.0   853.0    0.00 
 150    7:10   0.40   57.3    61    2.1   244     4.5   853.1    0.00 
 150    7:20   0.42   58.1    58    2.3   237     3.9   853.1    0.00 
 150    7:30   0.46   59.1    57    1.5   240     3.4   853.2    0.00 
 150    7:40   0.48   60.9    55    1.5   287     5.3   853.2    0.00 
 150    7:50   0.51   62.0    57    3.8   264     6.3   853.1    0.00 
 150    8:00   0.54   62.6    56    4.3   242     6.7   853.1    0.00 
 150    8:10   0.56   64.0    51    2.1   166     6.0   853.0    0.00 
 150    8:20   0.60   65.8    48    2.3   198     4.3   853.0    0.00 
 150    8:30   0.62   66.8    45    1.7   216     4.7   852.9    0.00 
 150    8:40   0.65   67.6    42    1.4   193     4.7   852.7    0.00 
 150    8:50   0.67   67.7    42    1.2   244     3.1   852.6    0.00 
 150    9:00   0.70   69.2    37    1.2    22     4.5   852.5    0.00 
 150    9:10   0.72   69.2    38    1.1   256     2.9   852.4    0.00 
 150    9:20   0.75   69.8    38    1.4   238     4.0   852.3    0.00 
 150    9:30   0.77   70.2    38    1.4   244     4.3   852.2    0.00 
 150    9:40   0.79   70.6    38    2.1   252     4.6   852.1    0.00 
 150    9:50   0.81   69.9    40    2.5   224     5.1   852.1    0.00 
 150   10:00   0.83   71.8    32    1.5   204     4.5   852.0    0.00 
 150   10:10   0.85   73.1    27    1.2   170     4.0   851.9    0.00 
 150   10:20   0.86   71.9    29    2.1   250     4.5   851.9    0.00 

Return to Antelope Valley graphs page.


Western Regional Climate Center,wrcc@dri.edu